Hlavní strana
METAR-TAF:

METAR-TAF

Letiště :

Rørvik, Norsko

zeměpisná šířka: 64-50N, zeměpisná délka: 011-09E, výška: 4 m

Aktuální stav počasí

Zpráva byla vytvořena před 40 minutami, v 12:20 UTC
Východní vítr 5 kt, proměnlivý mezi východoseverovýchodním a jihovýchodním
Teplota 5°C
Vlhkost vzduchu 70%
Tlak 1022 hPa
Viditelnost 10 km a více
Žádná oblačnost pod 1500 m, nevyskytují se cumulonimby.

METAR: ENRM 211220Z 10005KT 070V140 CAVOK 05/00 Q1022

Čas: 14:00 (13:00 UTC)

Předpověď počasí

Zpráva byla vytvořena před 5 hodinami a 0 minutami, v 08:00 UTC
Předpověď platná od 21 v 09 UTC do 21 v 13 UTC
Východní vítr 8 kt
Viditelnost 10 km a více
Žádná oblačnost pod 1500 m, nevyskytují se cumulonimby.

TAF: ENRM 210800Z 2109/2113 09008KT CAVOK

Stav a předpovědi počasí z více než 4 000 letišť (zprávy METAR a TAF).

Červené a žluté tečky na mapě představují dostupné meteorologické stanice.

Když kurzor umístíte na tečku, zobrazí se název stanice.

Pak kliknutím zobrazíte stav a předpověď počasí.

Chcete-li změnit mapu, kliknutím na zelené tlačítko se znaménkem +mapu přiblížíte, kliknutím na zelené tlačítko se znaménkem – mapu oddálíte a kliknutím na zelené šipky přejdete na sousední mapy.


METAR-TAF: